createdAt,value
2019-01-26T00:02:16.722Z,-6.00
2019-01-26T00:04:48.074Z,-6.00
2019-01-26T00:07:19.313Z,-6.00
2019-01-26T00:09:50.671Z,-6.00
2019-01-26T00:12:20.755Z,-6.00
2019-01-26T00:14:52.074Z,-6.00
2019-01-26T00:17:23.434Z,-6.00
2019-01-26T00:19:53.555Z,-6.00
2019-01-26T00:22:24.996Z,-6.00
2019-01-26T00:24:56.378Z,-6.10
2019-01-26T00:27:27.720Z,-6.10
2019-01-26T00:29:59.673Z,-6.10
2019-01-26T00:32:31.075Z,-6.10
2019-01-26T00:35:02.395Z,-6.10
2019-01-26T00:37:33.754Z,-6.10
2019-01-26T00:40:05.238Z,-6.10
2019-01-26T00:42:36.458Z,-6.10
2019-01-26T00:45:10.842Z,-6.10
2019-01-26T00:47:42.074Z,-6.10
2019-01-26T00:50:14.914Z,-6.20
2019-01-26T00:52:46.357Z,-6.10
2019-01-26T00:55:17.562Z,-6.20
2019-01-26T00:57:48.833Z,-6.10
2019-01-26T01:00:21.883Z,-6.10
2019-01-26T01:02:53.394Z,-6.10
2019-01-26T01:05:24.714Z,-6.10
2019-01-26T01:07:58.435Z,-6.20
2019-01-26T01:10:29.552Z,-6.20
2019-01-26T01:13:00.916Z,-6.20
2019-01-26T01:15:32.274Z,-6.10
2019-01-26T01:18:04.683Z,-6.10
2019-01-26T01:20:38.522Z,-6.20
2019-01-26T01:23:10.674Z,-6.10
2019-01-26T01:25:41.994Z,-6.20
2019-01-26T01:28:13.442Z,-6.20
2019-01-26T01:30:43.675Z,-6.10
2019-01-26T01:33:17.273Z,-6.10
2019-01-26T01:35:48.598Z,-6.10
2019-01-26T01:38:19.935Z,-6.20
2019-01-26T01:40:51.474Z,-6.10
2019-01-26T01:43:22.683Z,-6.20
2019-01-26T01:45:53.915Z,-6.20
2019-01-26T01:48:25.125Z,-6.10
2019-01-26T01:50:56.442Z,-6.10
2019-01-26T01:53:27.626Z,-6.10
2019-01-26T01:55:58.957Z,-6.10
2019-01-26T01:58:30.203Z,-6.10
2019-01-26T02:01:01.835Z,-6.10
2019-01-26T02:03:33.114Z,-6.10
2019-01-26T02:06:04.475Z,-6.10
2019-01-26T02:08:35.793Z,-6.10
2019-01-26T02:11:07.642Z,-6.10
2019-01-26T02:13:38.858Z,-6.10
2019-01-26T02:16:10.042Z,-6.10
2019-01-26T02:18:41.475Z,-6.10
2019-01-26T02:21:12.754Z,-6.10
2019-01-26T02:23:44.275Z,-6.10
2019-01-26T02:26:15.657Z,-6.10
2019-01-26T02:28:46.795Z,-6.10
2019-01-26T02:31:18.314Z,-6.00
2019-01-26T02:33:49.721Z,-6.00
2019-01-26T02:36:21.034Z,-6.00
2019-01-26T02:38:52.282Z,-6.00
2019-01-26T02:41:22.361Z,-6.00
2019-01-26T02:43:53.684Z,-6.00
2019-01-26T02:46:23.834Z,-6.00
2019-01-26T02:48:55.163Z,-6.00
2019-01-26T02:51:27.275Z,-6.10
2019-01-26T02:53:57.892Z,-6.10
2019-01-26T02:56:29.043Z,-6.00
2019-01-26T02:59:00.401Z,-6.10
2019-01-26T03:01:33.076Z,-6.10
2019-01-26T03:04:04.594Z,-6.10
2019-01-26T03:06:38.323Z,-6.10
2019-01-26T03:09:10.395Z,-6.00
2019-01-26T03:11:41.922Z,-6.00
2019-01-26T03:14:13.882Z,-6.00
2019-01-26T03:16:43.346Z,-6.00
2019-01-26T03:19:14.604Z,-5.90
2019-01-26T03:21:45.837Z,-6.00
2019-01-26T03:24:15.996Z,-5.90
2019-01-26T03:26:47.314Z,-5.90
2019-01-26T03:29:18.809Z,-5.90
2019-01-26T03:31:49.967Z,-5.90
2019-01-26T03:34:21.276Z,-5.90
2019-01-26T03:36:52.441Z,-5.90
2019-01-26T03:39:23.917Z,-6.00
2019-01-26T03:41:55.356Z,-6.00
2019-01-26T03:44:26.857Z,-6.00
2019-01-26T03:46:58.834Z,-6.00
2019-01-26T03:49:30.203Z,-6.10
2019-01-26T03:52:01.438Z,-6.20
2019-01-26T03:54:32.602Z,-6.30
2019-01-26T03:57:04.042Z,-6.30
2019-01-26T03:59:35.438Z,-6.30
2019-01-26T04:02:09.123Z,-6.40
2019-01-26T04:04:40.374Z,-6.60
2019-01-26T04:07:11.916Z,-6.70
2019-01-26T04:09:43.321Z,-6.80
2019-01-26T04:12:13.594Z,-6.80
2019-01-26T04:14:43.834Z,-6.80
2019-01-26T04:17:21.593Z,-6.90
2019-01-26T04:19:47.479Z,-6.80
2019-01-26T04:22:19.043Z,-6.80
2019-01-26T04:24:50.275Z,-6.80
2019-01-26T04:27:21.597Z,-6.80
2019-01-26T04:29:53.079Z,-6.70
2019-01-26T04:32:23.434Z,-6.90
2019-01-26T04:34:53.555Z,-6.90
2019-01-26T04:37:24.957Z,-6.90
2019-01-26T04:40:00.131Z,-6.90
2019-01-26T04:42:31.516Z,-7.00
2019-01-26T04:45:01.563Z,-7.00
2019-01-26T04:47:33.079Z,-6.90
2019-01-26T04:50:04.363Z,-7.00
2019-01-26T04:52:35.522Z,-7.00
2019-01-26T04:55:07.558Z,-7.10
2019-01-26T04:57:39.051Z,-7.10
2019-01-26T05:00:18.001Z,-7.10
2019-01-26T05:02:49.514Z,-7.10
2019-01-26T05:05:20.756Z,-7.00
2019-01-26T05:07:52.199Z,-7.00
2019-01-26T05:10:24.083Z,-7.00
2019-01-26T05:12:56.875Z,-7.00
2019-01-26T05:15:28.354Z,-7.00
2019-01-26T05:17:59.837Z,-7.10
2019-01-26T05:20:31.463Z,-7.10
2019-01-26T05:23:01.123Z,-7.10
2019-01-26T05:25:31.276Z,-7.10
2019-01-26T05:28:02.514Z,-7.00
2019-01-26T05:30:33.973Z,-7.10
2019-01-26T05:33:05.402Z,-7.10
2019-01-26T05:35:36.756Z,-7.20
2019-01-26T05:38:08.522Z,-7.10
2019-01-26T05:40:38.276Z,-7.20
2019-01-26T05:43:10.358Z,-7.20
2019-01-26T05:45:41.724Z,-7.20
2019-01-26T05:48:13.034Z,-7.10
2019-01-26T05:50:44.364Z,-7.20
2019-01-26T05:53:15.594Z,-7.20
2019-01-26T05:55:46.997Z,-7.30
2019-01-26T05:58:17.437Z,-7.30
2019-01-26T06:00:48.765Z,-7.50
2019-01-26T06:03:19.954Z,-7.40
2019-01-26T06:05:51.081Z,-7.30
2019-01-26T06:08:23.758Z,-7.40
2019-01-26T06:10:55.234Z,-7.40
2019-01-26T06:13:26.594Z,-7.40
2019-01-26T06:15:56.714Z,-7.40
2019-01-26T06:18:26.835Z,-7.40
2019-01-26T06:21:00.643Z,-7.40
2019-01-26T06:23:32.113Z,-7.30
2019-01-26T06:26:03.558Z,-7.40
2019-01-26T06:28:34.802Z,-7.30
2019-01-26T06:31:04.954Z,-7.30
2019-01-26T06:33:35.314Z,-7.30
2019-01-26T06:36:06.686Z,-7.30
2019-01-26T06:38:41.242Z,-7.30
2019-01-26T06:41:12.593Z,-7.30
2019-01-26T06:43:45.514Z,-7.30
2019-01-26T06:46:17.074Z,-7.30
2019-01-26T06:48:49.999Z,-7.30
2019-01-26T06:51:21.394Z,-7.30
2019-01-26T06:53:52.715Z,-7.30
2019-01-26T06:56:23.968Z,-7.30
2019-01-26T06:58:54.039Z,-7.20
2019-01-26T07:01:25.247Z,-7.10
2019-01-26T07:03:56.522Z,-6.90
2019-01-26T07:06:29.282Z,-7.00
2019-01-26T07:08:59.514Z,-7.00
2019-01-26T07:11:30.754Z,-7.00
2019-01-26T07:14:01.882Z,-7.00
2019-01-26T07:16:33.718Z,-7.00
2019-01-26T07:19:05.076Z,-7.00
2019-01-26T07:21:36.434Z,-6.90
2019-01-26T07:24:08.397Z,-6.80
2019-01-26T07:26:39.594Z,-6.70
2019-01-26T07:29:09.760Z,-6.70
2019-01-26T07:31:41.035Z,-6.80
2019-01-26T07:34:12.274Z,-6.70
2019-01-26T07:36:43.474Z,-6.70
2019-01-26T07:39:14.715Z,-6.60
2019-01-26T07:41:45.996Z,-6.50
2019-01-26T07:44:17.233Z,-6.60
2019-01-26T07:46:48.447Z,-6.40
2019-01-26T07:49:20.197Z,-6.40
2019-01-26T07:51:51.442Z,-6.50
2019-01-26T07:54:22.834Z,-6.50
2019-01-26T07:56:54.674Z,-6.50
2019-01-26T07:59:26.637Z,-6.40
2019-01-26T08:01:57.994Z,-6.50
2019-01-26T08:04:28.162Z,-6.40
2019-01-26T08:06:59.354Z,-6.20
2019-01-26T08:09:29.433Z,-6.30
2019-01-26T08:12:00.715Z,-6.20
2019-01-26T08:14:31.554Z,-6.30
2019-01-26T08:17:03.595Z,-6.40
2019-01-26T08:19:34.837Z,-6.30
2019-01-26T08:22:06.076Z,-6.20
2019-01-26T08:24:37.342Z,-6.30
2019-01-26T08:27:08.597Z,-6.30
2019-01-26T08:29:39.914Z,-6.30
2019-01-26T08:32:11.273Z,-6.30
2019-01-26T08:34:42.514Z,-6.20
2019-01-26T08:37:14.554Z,-6.20
2019-01-26T08:39:45.876Z,-6.20
2019-01-26T08:42:16.155Z,-6.10
2019-01-26T08:44:47.410Z,-6.10
2019-01-26T08:47:18.673Z,-6.00
2019-01-26T08:49:50.476Z,-6.00
2019-01-26T08:52:21.834Z,-5.90
2019-01-26T08:54:51.959Z,-5.90
2019-01-26T08:57:23.313Z,-5.90
2019-01-26T08:59:54.517Z,-5.90
2019-01-26T09:02:43.715Z,-5.90
2019-01-26T09:05:18.915Z,-5.90
2019-01-26T09:07:50.161Z,-6.00
2019-01-26T09:10:21.394Z,-5.90
2019-01-26T09:12:52.722Z,-5.80
2019-01-26T09:15:24.283Z,-5.70
2019-01-26T09:17:55.633Z,-5.80
2019-01-26T09:20:25.837Z,-5.80
2019-01-26T09:22:57.163Z,-5.80
2019-01-26T09:25:28.073Z,-5.80
2019-01-26T09:27:59.473Z,-5.90
2019-01-26T09:30:30.833Z,-5.90
2019-01-26T09:33:02.156Z,-5.90
2019-01-26T09:35:33.563Z,-5.90
2019-01-26T09:38:04.875Z,-5.90
2019-01-26T09:40:36.203Z,-6.00
2019-01-26T09:43:07.567Z,-5.90
2019-01-26T09:45:39.613Z,-6.00
2019-01-26T09:48:11.526Z,-5.90
2019-01-26T09:50:43.406Z,-5.80
2019-01-26T09:53:15.208Z,-5.30
2019-01-26T09:55:46.366Z,-5.40
2019-01-26T09:58:17.526Z,-5.50
2019-01-26T10:00:48.701Z,-5.50
2019-01-26T10:03:20.111Z,-5.60
2019-01-26T10:05:51.421Z,-5.50
2019-01-26T10:08:21.529Z,-5.60
2019-01-26T10:10:51.516Z,-5.60
2019-01-26T10:13:22.735Z,-5.60
2019-01-26T10:15:53.931Z,-5.40
2019-01-26T10:18:25.130Z,-5.40
2019-01-26T10:20:57.929Z,-5.50
2019-01-26T10:23:29.087Z,-5.40
2019-01-26T10:26:00.250Z,-5.30
2019-01-26T10:28:31.446Z,-5.20
2019-01-26T10:31:03.250Z,-5.10
2019-01-26T10:33:34.423Z,-5.20
2019-01-26T10:36:07.048Z,-5.00
2019-01-26T10:38:39.766Z,-4.80
2019-01-26T10:41:12.565Z,-4.80
2019-01-26T10:43:45.380Z,-4.80
2019-01-26T10:46:16.565Z,-4.70
2019-01-26T10:48:47.778Z,-4.70
2019-01-26T10:51:18.885Z,-4.60
2019-01-26T10:53:50.049Z,-4.60
2019-01-26T10:56:21.175Z,-4.50
2019-01-26T10:58:52.419Z,-4.60
2019-01-26T11:01:23.622Z,-4.60
2019-01-26T11:03:54.785Z,-4.40
2019-01-26T11:06:25.986Z,-4.40
2019-01-26T11:08:57.766Z,-4.30
2019-01-26T11:11:29.570Z,-4.20
2019-01-26T11:13:59.605Z,-4.20
2019-01-26T11:16:30.168Z,-4.10
2019-01-26T11:19:07.683Z,-4.20
2019-01-26T11:21:34.171Z,-4.10
2019-01-26T11:24:04.960Z,-3.90
2019-01-26T11:26:36.344Z,-3.70
2019-01-26T11:29:07.652Z,-3.80
2019-01-26T11:31:39.453Z,-3.90
2019-01-26T11:34:10.726Z,-4.00
2019-01-26T11:36:41.968Z,-4.00
2019-01-26T11:39:15.433Z,-4.10
2019-01-26T11:41:46.685Z,-4.00
2019-01-26T11:44:17.898Z,-3.90
2019-01-26T11:46:49.046Z,-3.90
2019-01-26T11:49:20.171Z,-3.80
2019-01-26T11:51:52.935Z,-3.80
2019-01-26T11:54:24.085Z,-3.80
2019-01-26T11:56:56.837Z,-3.70
2019-01-26T11:59:28.695Z,-3.80
2019-01-26T12:02:01.529Z,-3.60
2019-01-26T12:04:37.110Z,-3.60
2019-01-26T12:07:09.899Z,-3.40
2019-01-26T12:09:41.061Z,-3.30
2019-01-26T12:12:11.163Z,-3.70
2019-01-26T12:14:44.538Z,-3.40
2019-01-26T12:17:15.720Z,-3.60
2019-01-26T12:19:46.976Z,-3.80
2019-01-26T12:22:19.765Z,-3.80
2019-01-26T12:24:50.681Z,-3.60
2019-01-26T12:27:22.226Z,-3.60
2019-01-26T12:29:54.804Z,-3.90
2019-01-26T12:32:26.013Z,-3.90
2019-01-26T12:34:56.104Z,-3.60
2019-01-26T12:37:26.175Z,-3.80
2019-01-26T12:39:57.413Z,-3.90
2019-01-26T12:42:28.220Z,-4.00
2019-01-26T12:44:59.465Z,-4.10
2019-01-26T12:47:31.294Z,-4.00
2019-01-26T12:50:02.553Z,-4.00
2019-01-26T12:52:32.664Z,-4.00
2019-01-26T12:55:03.977Z,-3.90
2019-01-26T12:57:34.073Z,-3.80
2019-01-26T13:00:05.464Z,-4.00
2019-01-26T13:02:36.772Z,-3.90
2019-01-26T13:05:09.293Z,-4.00
2019-01-26T13:07:39.434Z,-4.00
2019-01-26T13:10:17.153Z,-4.00
2019-01-26T13:12:49.784Z,-4.10
2019-01-26T13:15:21.060Z,-4.20
2019-01-26T13:17:51.307Z,-4.20
2019-01-26T13:20:22.619Z,-4.20
2019-01-26T13:22:54.072Z,-4.30
2019-01-26T13:25:25.382Z,-4.30
2019-01-26T13:27:58.593Z,-4.40
2019-01-26T13:30:29.532Z,-4.30
2019-01-26T13:33:00.773Z,-4.30
2019-01-26T13:35:31.942Z,-4.30
2019-01-26T13:38:03.136Z,-4.30
2019-01-26T13:40:37.215Z,-4.40
2019-01-26T13:43:09.137Z,-4.40
2019-01-26T13:45:39.276Z,-4.40
2019-01-26T13:48:10.534Z,-4.40
2019-01-26T13:50:41.753Z,-4.50
2019-01-26T13:53:12.893Z,-4.50
2019-01-26T13:55:44.134Z,-4.50
2019-01-26T13:58:15.353Z,-4.50
2019-01-26T14:00:48.986Z,-4.50
2019-01-26T14:03:20.505Z,-4.50
2019-01-26T14:05:53.021Z,-4.50
2019-01-26T14:08:24.481Z,-4.60
2019-01-26T14:10:55.774Z,-4.60
2019-01-26T14:13:26.972Z,-4.60
2019-01-26T14:15:58.177Z,-4.70
2019-01-26T14:18:29.551Z,-4.70
2019-01-26T14:21:03.952Z,-4.70
2019-01-26T14:23:35.781Z,-4.70
2019-01-26T14:26:06.981Z,-4.80
2019-01-26T14:28:38.183Z,-4.80
2019-01-26T14:31:08.315Z,-4.80
2019-01-26T14:33:39.613Z,-4.80
2019-01-26T14:36:13.581Z,-4.80
2019-01-26T14:38:45.097Z,-4.80
2019-01-26T14:41:16.634Z,-4.80
2019-01-26T14:43:48.221Z,-4.80
2019-01-26T14:46:19.681Z,-4.80
2019-01-26T14:48:53.335Z,-4.70
2019-01-26T14:51:24.743Z,-4.70
2019-01-26T14:53:57.373Z,-4.80
2019-01-26T14:56:28.573Z,-4.80
2019-01-26T14:58:58.733Z,-4.80
2019-01-26T15:01:29.557Z,-4.80
2019-01-26T15:03:59.145Z,-4.80
2019-01-26T15:06:29.321Z,-4.80
2019-01-26T15:09:00.694Z,-4.90
2019-01-26T15:11:32.092Z,-4.80
2019-01-26T15:14:02.284Z,-4.80
2019-01-26T15:16:32.484Z,-4.80
2019-01-26T15:19:02.895Z,-4.90
2019-01-26T15:21:34.337Z,-4.80
2019-01-26T15:24:05.896Z,-4.90
2019-01-26T15:26:37.213Z,-4.90
2019-01-26T15:29:08.653Z,-4.90
2019-01-26T15:31:40.101Z,-4.80
2019-01-26T15:34:11.615Z,-4.90
2019-01-26T15:36:44.532Z,-4.90
2019-01-26T15:39:16.101Z,-4.90
2019-01-26T15:41:48.012Z,-4.90
2019-01-26T15:44:19.513Z,-4.90
2019-01-26T15:46:49.874Z,-4.90
2019-01-26T15:49:21.379Z,-4.90
2019-01-26T15:51:52.823Z,-4.90
2019-01-26T15:54:24.603Z,-4.90
2019-01-26T15:56:54.805Z,-5.00
2019-01-26T15:59:26.273Z,-4.90
2019-01-26T16:01:58.260Z,-5.00
2019-01-26T16:04:29.781Z,-5.00
2019-01-26T16:07:01.313Z,-5.00
2019-01-26T16:09:33.373Z,-5.00
2019-01-26T16:12:04.933Z,-5.00
2019-01-26T16:14:37.103Z,-5.00
2019-01-26T16:17:08.407Z,-5.00
2019-01-26T16:19:39.880Z,-5.00
2019-01-26T16:22:11.414Z,-5.00
2019-01-26T16:24:42.733Z,-5.10
2019-01-26T16:27:14.566Z,-5.00
2019-01-26T16:29:48.483Z,-5.00
2019-01-26T16:32:19.444Z,-5.20
2019-01-26T16:34:50.954Z,-5.20
2019-01-26T16:37:22.396Z,-5.10
2019-01-26T16:39:55.300Z,-5.10
2019-01-26T16:42:27.452Z,-5.10
2019-01-26T16:44:58.901Z,-5.20
2019-01-26T16:47:30.322Z,-5.20
2019-01-26T16:50:01.814Z,-5.20
2019-01-26T16:52:32.250Z,-5.20
2019-01-26T16:55:04.452Z,-5.10
2019-01-26T16:57:35.902Z,-5.10
2019-01-26T17:00:10.333Z,-5.10
2019-01-26T17:02:41.594Z,-5.10
2019-01-26T17:05:13.538Z,-5.10
2019-01-26T17:07:44.953Z,-5.00
2019-01-26T17:10:19.060Z,-4.70
2019-01-26T17:12:50.491Z,-4.50
2019-01-26T17:15:21.988Z,-4.40
2019-01-26T17:17:54.140Z,-4.30
2019-01-26T17:20:27.005Z,-4.40
2019-01-26T17:22:58.780Z,-4.70
2019-01-26T17:25:29.183Z,-5.00
2019-01-26T17:28:03.136Z,-5.10
2019-01-26T17:30:39.775Z,-5.20
2019-01-26T17:33:10.056Z,-5.20
2019-01-26T17:35:40.464Z,-5.10
2019-01-26T17:38:13.420Z,-5.10
2019-01-26T17:40:44.937Z,-5.10
2019-01-26T17:43:15.363Z,-5.10
2019-01-26T17:45:46.892Z,-5.00
2019-01-26T17:48:18.492Z,-5.00
2019-01-26T17:50:50.101Z,-4.80
2019-01-26T17:53:22.310Z,-4.80
2019-01-26T17:55:53.777Z,-4.80
2019-01-26T17:58:25.333Z,-4.70
2019-01-26T18:00:58.373Z,-4.70
2019-01-26T18:03:29.860Z,-4.70
2019-01-26T18:06:01.420Z,-4.70
2019-01-26T18:08:32.974Z,-4.70
2019-01-26T18:11:05.524Z,-4.70
2019-01-26T18:13:37.057Z,-4.60
2019-01-26T18:16:09.676Z,-4.60
2019-01-26T18:18:44.172Z,-4.50
2019-01-26T18:21:15.779Z,-4.50
2019-01-26T18:23:47.435Z,-4.50
2019-01-26T18:26:18.937Z,-4.50
2019-01-26T18:28:50.493Z,-4.50
2019-01-26T18:31:22.018Z,-4.40
2019-01-26T18:33:56.032Z,-4.50
2019-01-26T18:36:27.535Z,-4.50
2019-01-26T18:38:59.135Z,-4.50
2019-01-26T18:41:29.540Z,-4.40
2019-01-26T18:44:01.053Z,-4.40
2019-01-26T18:46:31.493Z,-4.40
2019-01-26T18:49:03.615Z,-4.40
2019-01-26T18:51:35.132Z,-4.40
2019-01-26T18:54:06.695Z,-4.40
2019-01-26T18:56:38.212Z,-4.40
2019-01-26T18:59:10.814Z,-4.40
2019-01-26T19:01:42.914Z,-4.40
2019-01-26T19:04:15.732Z,-4.40
2019-01-26T19:06:47.294Z,-4.40
2019-01-26T19:09:19.429Z,-4.40
2019-01-26T19:11:50.852Z,-4.40
2019-01-26T19:14:22.389Z,-4.40
2019-01-26T19:16:55.136Z,-4.40
2019-01-26T19:19:26.733Z,-4.40
2019-01-26T19:21:58.333Z,-4.40
2019-01-26T19:25:40.495Z,-4.30
2019-01-26T19:28:12.097Z,-4.30
2019-01-26T19:30:43.623Z,-4.30
2019-01-26T19:33:15.230Z,-4.30
2019-01-26T19:35:50.621Z,-4.30
2019-01-26T19:38:22.115Z,-4.30
2019-01-26T19:40:53.745Z,-4.30
2019-01-26T19:43:24.591Z,-4.30
2019-01-26T19:45:56.055Z,-4.30
2019-01-26T19:48:27.672Z,-4.20
2019-01-26T19:50:57.462Z,-4.20
2019-01-26T19:53:28.983Z,-4.20
2019-01-26T19:56:00.572Z,-4.20
2019-01-26T19:58:32.134Z,-4.20
2019-01-26T20:01:03.774Z,-4.20
2019-01-26T20:03:36.564Z,-4.20
2019-01-26T20:06:08.172Z,-4.10
2019-01-26T20:08:39.173Z,-4.10
2019-01-26T20:11:10.772Z,-4.10
2019-01-26T20:13:42.893Z,-4.00
2019-01-26T20:16:13.392Z,-4.00
2019-01-26T20:18:44.944Z,-4.00
2019-01-26T20:21:17.751Z,-4.00
2019-01-26T20:23:47.220Z,-4.00
2019-01-26T20:26:18.784Z,-3.90
2019-01-26T20:28:51.816Z,-3.90
2019-01-26T20:31:23.864Z,-3.90
2019-01-26T20:33:55.302Z,-3.90
2019-01-26T20:36:26.875Z,-3.90
2019-01-26T20:38:58.561Z,-3.90
2019-01-26T20:41:30.104Z,-3.90
2019-01-26T20:44:01.629Z,-3.90
2019-01-26T20:46:33.212Z,-4.00
2019-01-26T20:49:04.784Z,-4.00
2019-01-26T20:51:36.213Z,-3.90
2019-01-26T20:54:06.672Z,-3.80
2019-01-26T20:56:38.175Z,-3.90
2019-01-26T20:59:08.587Z,-3.90
2019-01-26T21:01:38.922Z,-4.00
2019-01-26T21:04:09.352Z,-3.90
2019-01-26T21:06:39.554Z,-4.00
2019-01-26T21:09:09.975Z,-4.00
2019-01-26T21:11:44.724Z,-3.90
2019-01-26T21:14:16.254Z,-3.80
2019-01-26T21:16:46.693Z,-3.80
2019-01-26T21:19:18.180Z,-3.80
2019-01-26T21:21:48.421Z,-3.80
2019-01-26T21:24:21.070Z,-3.80
2019-01-26T21:26:52.493Z,-3.80
2019-01-26T21:29:23.934Z,-3.80
2019-01-26T21:31:54.253Z,-3.80
2019-01-26T21:34:24.681Z,-3.80
2019-01-26T21:36:56.109Z,-3.80
2019-01-26T21:39:28.739Z,-3.80
2019-01-26T21:42:00.627Z,-3.80
2019-01-26T21:44:32.083Z,-3.80
2019-01-26T21:47:03.613Z,-3.80
2019-01-26T21:49:34.972Z,-3.80
2019-01-26T21:52:06.358Z,-3.80
2019-01-26T21:54:37.673Z,-3.80
2019-01-26T21:57:09.052Z,-3.80
2019-01-26T21:59:41.703Z,-3.80
2019-01-26T22:02:13.021Z,-3.80
2019-01-26T22:04:44.313Z,-3.80
2019-01-26T22:07:15.612Z,-3.80
2019-01-26T22:09:46.830Z,-3.80
2019-01-26T22:12:18.653Z,-3.80
2019-01-26T22:14:51.133Z,-3.70
2019-01-26T22:17:22.332Z,-3.70
2019-01-26T22:19:54.779Z,-3.70
2019-01-26T22:22:24.992Z,-3.70
2019-01-26T22:24:56.893Z,-3.70
2019-01-26T22:27:28.102Z,-3.70
2019-01-26T22:30:01.337Z,-3.70
2019-01-26T22:32:32.633Z,-3.70
2019-01-26T22:35:02.653Z,-3.70
2019-01-26T22:37:33.853Z,-3.70
2019-01-26T22:40:03.946Z,-3.70
2019-01-26T22:42:35.138Z,-3.70
2019-01-26T22:45:07.215Z,-3.70
2019-01-26T22:47:37.249Z,-3.70
2019-01-26T22:50:11.677Z,-3.70
2019-01-26T22:52:42.984Z,-3.90
2019-01-26T22:55:16.512Z,-4.00
2019-01-26T22:57:47.873Z,-4.00
2019-01-26T23:00:52.853Z,-4.00
2019-01-26T23:03:53.155Z,-4.00
2019-01-26T23:06:42.493Z,-4.00
2019-01-26T23:09:28.892Z,-3.90
2019-01-26T23:12:09.292Z,-3.90
2019-01-26T23:15:00.246Z,-3.90
2019-01-26T23:17:40.656Z,-3.80
2019-01-26T23:20:25.782Z,-3.60
2019-01-26T23:23:17.109Z,-3.60
2019-01-26T23:25:51.455Z,-3.60
2019-01-26T23:28:37.403Z,-3.60
2019-01-26T23:31:19.309Z,-3.60
2019-01-26T23:33:50.492Z,-3.70
2019-01-26T23:36:21.694Z,-3.70
2019-01-26T23:38:51.228Z,-3.70
2019-01-26T23:41:22.653Z,-3.70
2019-01-26T23:43:53.852Z,-3.70
2019-01-26T23:46:25.053Z,-3.70
2019-01-26T23:48:56.286Z,-3.70
2019-01-26T23:51:27.063Z,-3.70
2019-01-26T23:53:58.341Z,-3.60
2019-01-26T23:56:29.533Z,-3.60
2019-01-26T23:59:01.373Z,-3.60
